Olds, Canada
Current Conditions -  °F | °C
As of 11:00 AM on Tuesday 21 Oct 2014 (Local Time) from CYQF Reporting Station
Broken Clouds Broken Clouds  
Wind Chill: 45°   Ceiling: 23000
Heat Index: 45°   Visibility: 15mi
Dew Point: 39°   Wind: 3mph
Humidity: 81%   Direction: 170°S
Pressure: 29.66"   Gusts: NA
Location:  51.78°N, 114.1°W
Report Text: CYQF 211700Z 17003KT 15SM SCT110 BKN230 07/04 A2966 RMK AC4CI3 SLP058 DENSITY ALT 3000FT
Loading
Personal Weather Stations






























Interactive Weather Map
Tropical Storm Tracking
New forecast layout! Learn more

10-Day Weather Forecast

Advertisements
Track Severe Weather on mobile